Ness City, Kansas
Current Conditions -  °F | °C
As of 6:15 PM on Wednesday 26 Nov 2014 (Local Time) from KHYS Reporting Station
Overcast Overcast  
Wind Chill: 31°   Ceiling: 9000
Heat Index: 37°   Visibility: 10mi
Dew Point: 16°   Wind: 8mph
Humidity: 41%   Direction: 10°N
Pressure: 30.35"   Gusts: NA
Location:  38.45°N, 99.91°W
Report Text: KHYS 270015Z AUTO 01007KT 10SM BKN090 OVC110 03/M09 A3035 RMK AO1
Loading
Personal Weather Stations






























Interactive Weather Map New forecast layout! Learn more

10-Day Weather Forecast

Advertisements
Track Severe Weather on mobile